Flugplatz Reichelsheim

Für EDFB sind keine METAR/TAF Berichte vorhanden.
Es werden die Flugwettermeldungen vom Flugplatz Frankfurt am Main International in 40 km Entfernung angezeigt.

Bericht für EDDF

vom 14.11. um 11:50 UTC

Wind 9 kt aus 100°

Sichtweite 10 km oder mehr

gute Sicht, keine Wolken < 5000 ft, keine CB, keine Wettererscheinungen (CAVOK)

Temperatur 7.0°C

Taupunkt 0.0°C

Luftfeuchtigkeit 61%

Luftdruck 1003 hPa

keine wesentliche Wetteränderung innerhalb den nächsten 2 Stunden zu erwarten

EDDF 141150Z 10009KT 070V140 CAVOK 07/00 Q1003 NOSIG

Prognose für EDDF

vom 14.11. um 00:00 UTC

Zwischen 00:00 UTC und 00:00 UTC

Wind 8 kt aus 90°

Sichtweite 10 km oder mehr

gering bewölkt in 2500 ft


Zwischen 00:00 und 00:00 UTC übergehend zu

Wind 9 kt aus 30°

Sichtweite 10 km oder mehr

gering bewölkt in 2500 ft


Am 15.11. zwischen 00:00 und 00:00 UTC übergehend zu

Wind 4 kt aus 140°

Sichtweite 10 km oder mehr

gering bewölkt in 2500 ft

TAF EDDF 141100Z 1412/1518 09008KT 9999 FEW025 BECMG 1417/1420 03009KT BECMG 1511/1513 14004KT
Impressum